sensor_id;sensor_type;location;lat;lon;timestamp;temperature;humidity
65462;DHT22;53236;43.666;18.444;2023-05-10T00:02:09;10.00;99.90
65462;DHT22;53236;43.666;18.444;2023-05-10T00:04:35;10.00;99.90
65462;DHT22;53236;43.666;18.444;2023-05-10T00:07:01;9.90;99.90
65462;DHT22;53236;43.666;18.444;2023-05-10T00:09:27;9.80;99.90
65462;DHT22;53236;43.666;18.444;2023-05-10T00:11:53;9.80;99.90
65462;DHT22;53236;43.666;18.444;2023-05-10T00:14:19;9.80;99.90
65462;DHT22;53236;43.666;18.444;2023-05-10T00:16:44;9.80;99.90
65462;DHT22;53236;43.666;18.444;2023-05-10T00:19:10;9.80;99.90
65462;DHT22;53236;43.666;18.444;2023-05-10T00:21:36;9.80;99.90
65462;DHT22;53236;43.666;18.444;2023-05-10T00:24:02;9.70;99.90
65462;DHT22;53236;43.666;18.444;2023-05-10T00:26:27;9.80;99.90
65462;DHT22;53236;43.666;18.444;2023-05-10T00:28:53;9.70;99.90
65462;DHT22;53236;43.666;18.444;2023-05-10T00:31:19;9.70;99.90
65462;DHT22;53236;43.666;18.444;2023-05-10T00:33:45;9.70;99.90
65462;DHT22;53236;43.666;18.444;2023-05-10T00:36:11;9.70;99.90
65462;DHT22;53236;43.666;18.444;2023-05-10T00:38:37;9.60;99.90
65462;DHT22;53236;43.666;18.444;2023-05-10T00:41:03;9.60;99.90
65462;DHT22;53236;43.666;18.444;2023-05-10T00:43:29;9.60;99.90
65462;DHT22;53236;43.666;18.444;2023-05-10T00:45:55;9.60;99.90
65462;DHT22;53236;43.666;18.444;2023-05-10T00:48:21;9.60;99.90
65462;DHT22;53236;43.666;18.444;2023-05-10T00:50:47;9.60;99.90
65462;DHT22;53236;43.666;18.444;2023-05-10T00:53:14;9.70;99.90
65462;DHT22;53236;43.666;18.444;2023-05-10T00:55:40;9.60;99.90
65462;DHT22;53236;43.666;18.444;2023-05-10T00:58:07;9.50;99.90
65462;DHT22;53236;43.666;18.444;2023-05-10T01:00:33;9.50;99.90
65462;DHT22;53236;43.666;18.444;2023-05-10T01:03:00;9.40;99.90
65462;DHT22;53236;43.666;18.444;2023-05-10T01:05:26;9.40;99.90
65462;DHT22;53236;43.666;18.444;2023-05-10T01:07:53;9.30;99.90
65462;DHT22;53236;43.666;18.444;2023-05-10T01:10:19;9.30;99.90
65462;DHT22;53236;43.666;18.444;2023-05-10T01:12:46;9.30;99.90
65462;DHT22;53236;43.666;18.444;2023-05-10T01:15:13;9.30;99.90
65462;DHT22;53236;43.666;18.444;2023-05-10T01:17:41;9.30;99.90
65462;DHT22;53236;43.666;18.444;2023-05-10T01:20:09;9.30;99.90
65462;DHT22;53236;43.666;18.444;2023-05-10T01:22:59;9.20;99.90
65462;DHT22;53236;43.666;18.444;2023-05-10T01:25:58;9.10;99.90
65462;DHT22;53236;43.666;18.444;2023-05-10T01:34:16;8.90;99.90
65462;DHT22;53236;43.666;18.444;2023-05-10T01:36:52;8.90;99.90
65462;DHT22;53236;43.666;18.444;2023-05-10T01:39:28;8.90;99.90
65462;DHT22;53236;43.666;18.444;2023-05-10T01:42:07;8.90;99.90
65462;DHT22;53236;43.666;18.444;2023-05-10T01:44:35;8.90;99.90
65462;DHT22;53236;43.666;18.444;2023-05-10T01:47:10;9.00;99.90
65462;DHT22;53236;43.666;18.444;2023-05-10T01:50:06;9.00;99.90
65462;DHT22;53236;43.666;18.444;2023-05-10T01:52:41;9.10;99.90
65462;DHT22;53236;43.666;18.444;2023-05-10T01:55:11;9.00;99.90
65462;DHT22;53236;43.666;18.444;2023-05-10T01:57:39;9.10;99.90
65462;DHT22;53236;43.666;18.444;2023-05-10T02:00:06;9.10;99.90
65462;DHT22;53236;43.666;18.444;2023-05-10T02:02:36;9.00;99.90
65462;DHT22;53236;43.666;18.444;2023-05-10T02:05:05;9.00;99.90
65462;DHT22;53236;43.666;18.444;2023-05-10T02:07:33;9.00;99.90
65462;DHT22;53236;43.666;18.444;2023-05-10T02:10:00;9.00;99.90
65462;DHT22;53236;43.666;18.444;2023-05-10T02:12:28;9.00;99.90
65462;DHT22;53236;43.666;18.444;2023-05-10T02:14:55;9.00;99.90
65462;DHT22;53236;43.666;18.444;2023-05-10T02:17:23;9.10;99.90
65462;DHT22;53236;43.666;18.444;2023-05-10T02:19:51;9.10;99.90
65462;DHT22;53236;43.666;18.444;2023-05-10T02:22:19;9.20;99.90
65462;DHT22;53236;43.666;18.444;2023-05-10T02:24:45;9.00;99.90
65462;DHT22;53236;43.666;18.444;2023-05-10T02:27:12;9.10;99.90
65462;DHT22;53236;43.666;18.444;2023-05-10T02:29:40;9.10;99.90
65462;DHT22;53236;43.666;18.444;2023-05-10T02:32:06;9.10;99.90
65462;DHT22;53236;43.666;18.444;2023-05-10T02:34:33;9.20;99.90
65462;DHT22;53236;43.666;18.444;2023-05-10T02:36:59;9.20;99.90
65462;DHT22;53236;43.666;18.444;2023-05-10T02:39:26;9.20;99.90
65462;DHT22;53236;43.666;18.444;2023-05-10T02:41:54;9.30;99.90
65462;DHT22;53236;43.666;18.444;2023-05-10T02:44:22;9.30;99.90
65462;DHT22;53236;43.666;18.444;2023-05-10T02:46:48;9.40;99.90
65462;DHT22;53236;43.666;18.444;2023-05-10T02:49:14;9.40;99.90
65462;DHT22;53236;43.666;18.444;2023-05-10T02:51:47;9.40;99.90
65462;DHT22;53236;43.666;18.444;2023-05-10T02:54:19;9.40;99.90
65462;DHT22;53236;43.666;18.444;2023-05-10T02:56:52;9.30;99.90
65462;DHT22;53236;43.666;18.444;2023-05-10T02:59:19;9.30;99.90
65462;DHT22;53236;43.666;18.444;2023-05-10T03:01:45;9.30;99.90
65462;DHT22;53236;43.666;18.444;2023-05-10T03:04:10;9.30;99.90
65462;DHT22;53236;43.666;18.444;2023-05-10T03:06:36;9.30;99.90
65462;DHT22;53236;43.666;18.444;2023-05-10T03:09:03;9.40;99.90
65462;DHT22;53236;43.666;18.444;2023-05-10T03:14:22;9.40;99.90
65462;DHT22;53236;43.666;18.444;2023-05-10T03:17:56;9.30;99.90
65462;DHT22;53236;43.666;18.444;2023-05-10T03:19:56;9.30;99.90
65462;DHT22;53236;43.666;18.444;2023-05-10T03:23:00;9.20;99.90
65462;DHT22;53236;43.666;18.444;2023-05-10T03:25:20;9.20;99.90
65462;DHT22;53236;43.666;18.444;2023-05-10T03:27:47;9.30;99.90
65462;DHT22;53236;43.666;18.444;2023-05-10T03:30:14;9.20;99.90
65462;DHT22;53236;43.666;18.444;2023-05-10T03:32:41;9.20;99.90
65462;DHT22;53236;43.666;18.444;2023-05-10T03:35:11;9.20;99.90
65462;DHT22;53236;43.666;18.444;2023-05-10T03:37:37;9.30;99.90
65462;DHT22;53236;43.666;18.444;2023-05-10T03:40:04;9.30;99.90
65462;DHT22;53236;43.666;18.444;2023-05-10T03:42:30;9.30;99.90
65462;DHT22;53236;43.666;18.444;2023-05-10T03:44:56;9.30;99.90
65462;DHT22;53236;43.666;18.444;2023-05-10T03:47:22;9.30;99.90
65462;DHT22;53236;43.666;18.444;2023-05-10T03:49:47;9.30;99.90
65462;DHT22;53236;43.666;18.444;2023-05-10T03:52:13;9.40;99.90
65462;DHT22;53236;43.666;18.444;2023-05-10T03:54:39;9.40;99.90
65462;DHT22;53236;43.666;18.444;2023-05-10T03:57:04;9.40;99.90
65462;DHT22;53236;43.666;18.444;2023-05-10T03:59:30;9.50;99.90
65462;DHT22;53236;43.666;18.444;2023-05-10T04:01:56;9.50;99.90
65462;DHT22;53236;43.666;18.444;2023-05-10T04:04:22;9.50;99.90
65462;DHT22;53236;43.666;18.444;2023-05-10T04:06:48;9.50;99.90
65462;DHT22;53236;43.666;18.444;2023-05-10T04:09:15;9.60;99.90
65462;DHT22;53236;43.666;18.444;2023-05-10T04:11:41;9.60;99.90
65462;DHT22;53236;43.666;18.444;2023-05-10T04:14:07;9.70;99.90
65462;DHT22;53236;43.666;18.444;2023-05-10T04:16:33;9.70;99.90
65462;DHT22;53236;43.666;18.444;2023-05-10T04:18:59;9.70;99.90
65462;DHT22;53236;43.666;18.444;2023-05-10T04:21:25;9.70;99.90
65462;DHT22;53236;43.666;18.444;2023-05-10T04:23:51;9.80;99.90
65462;DHT22;53236;43.666;18.444;2023-05-10T04:26:16;9.80;99.90
65462;DHT22;53236;43.666;18.444;2023-05-10T04:28:42;9.80;99.90
65462;DHT22;53236;43.666;18.444;2023-05-10T04:31:09;9.80;99.90
65462;DHT22;53236;43.666;18.444;2023-05-10T04:33:35;9.90;99.90
65462;DHT22;53236;43.666;18.444;2023-05-10T04:36:02;9.90;99.90
65462;DHT22;53236;43.666;18.444;2023-05-10T04:38:28;9.90;99.90
65462;DHT22;53236;43.666;18.444;2023-05-10T04:40:54;10.00;99.90
65462;DHT22;53236;43.666;18.444;2023-05-10T04:43:20;10.20;99.90
65462;DHT22;53236;43.666;18.444;2023-05-10T04:45:45;10.30;99.90
65462;DHT22;53236;43.666;18.444;2023-05-10T04:48:11;10.50;99.90
65462;DHT22;53236;43.666;18.444;2023-05-10T04:50:38;10.70;99.90
65462;DHT22;53236;43.666;18.444;2023-05-10T04:53:04;10.90;99.90
65462;DHT22;53236;43.666;18.444;2023-05-10T04:55:30;11.10;99.90
65462;DHT22;53236;43.666;18.444;2023-05-10T04:57:56;11.20;99.90
65462;DHT22;53236;43.666;18.444;2023-05-10T05:00:23;11.30;99.90
65462;DHT22;53236;43.666;18.444;2023-05-10T05:02:49;11.30;99.90
65462;DHT22;53236;43.666;18.444;2023-05-10T05:05:14;11.30;99.90
65462;DHT22;53236;43.666;18.444;2023-05-10T05:07:40;11.30;99.90
65462;DHT22;53236;43.666;18.444;2023-05-10T05:10:08;11.30;99.90
65462;DHT22;53236;43.666;18.444;2023-05-10T05:12:35;11.20;99.90
65462;DHT22;53236;43.666;18.444;2023-05-10T05:15:01;11.40;99.90
65462;DHT22;53236;43.666;18.444;2023-05-10T05:17:27;11.20;99.90
65462;DHT22;53236;43.666;18.444;2023-05-10T05:19:53;11.20;99.90
65462;DHT22;53236;43.666;18.444;2023-05-10T05:22:18;11.30;99.90
65462;DHT22;53236;43.666;18.444;2023-05-10T05:24:56;11.40;99.90
65462;DHT22;53236;43.666;18.444;2023-05-10T05:27:22;11.30;99.90
65462;DHT22;53236;43.666;18.444;2023-05-10T05:29:52;11.40;99.90
65462;DHT22;53236;43.666;18.444;2023-05-10T05:32:18;11.50;99.90
65462;DHT22;53236;43.666;18.444;2023-05-10T05:34:46;11.50;99.90
65462;DHT22;53236;43.666;18.444;2023-05-10T05:37:15;11.60;99.90
65462;DHT22;53236;43.666;18.444;2023-05-10T05:39:42;11.60;99.90
65462;DHT22;53236;43.666;18.444;2023-05-10T05:42:08;11.70;99.90
65462;DHT22;53236;43.666;18.444;2023-05-10T05:44:35;11.60;99.90
65462;DHT22;53236;43.666;18.444;2023-05-10T05:47:01;11.70;99.90
65462;DHT22;53236;43.666;18.444;2023-05-10T05:49:27;11.80;99.90
65462;DHT22;53236;43.666;18.444;2023-05-10T05:51:53;11.90;99.90
65462;DHT22;53236;43.666;18.444;2023-05-10T05:54:19;12.00;99.90
65462;DHT22;53236;43.666;18.444;2023-05-10T05:56:45;12.10;99.90
65462;DHT22;53236;43.666;18.444;2023-05-10T05:59:11;12.20;99.90
65462;DHT22;53236;43.666;18.444;2023-05-10T06:01:37;12.40;99.90
65462;DHT22;53236;43.666;18.444;2023-05-10T06:04:02;12.60;99.90
65462;DHT22;53236;43.666;18.444;2023-05-10T06:06:28;12.80;99.90
65462;DHT22;53236;43.666;18.444;2023-05-10T06:08:54;13.20;99.90
65462;DHT22;53236;43.666;18.444;2023-05-10T06:11:20;13.50;99.90
65462;DHT22;53236;43.666;18.444;2023-05-10T06:13:49;14.00;99.90
65462;DHT22;53236;43.666;18.444;2023-05-10T06:16:15;14.40;99.90
65462;DHT22;53236;43.666;18.444;2023-05-10T06:18:41;15.10;99.90
65462;DHT22;53236;43.666;18.444;2023-05-10T06:21:07;15.70;99.90
65462;DHT22;53236;43.666;18.444;2023-05-10T06:23:33;17.00;92.40
65462;DHT22;53236;43.666;18.444;2023-05-10T06:25:59;17.90;82.70
65462;DHT22;53236;43.666;18.444;2023-05-10T06:28:25;18.20;77.30
65462;DHT22;53236;43.666;18.444;2023-05-10T06:30:51;18.20;73.50
65462;DHT22;53236;43.666;18.444;2023-05-10T06:33:17;17.90;72.20
65462;DHT22;53236;43.666;18.444;2023-05-10T06:35:43;18.40;72.40
65462;DHT22;53236;43.666;18.444;2023-05-10T06:38:09;18.50;75.50
65462;DHT22;53236;43.666;18.444;2023-05-10T06:40:35;19.60;69.90
65462;DHT22;53236;43.666;18.444;2023-05-10T06:43:01;20.00;65.40
65462;DHT22;53236;43.666;18.444;2023-05-10T06:45:27;19.80;65.60
65462;DHT22;53236;43.666;18.444;2023-05-10T06:47:53;19.90;63.90
65462;DHT22;53236;43.666;18.444;2023-05-10T06:50:18;20.50;64.10
65462;DHT22;53236;43.666;18.444;2023-05-10T06:52:44;20.60;61.20
65462;DHT22;53236;43.666;18.444;2023-05-10T06:55:10;20.50;61.30
65462;DHT22;53236;43.666;18.444;2023-05-10T06:57:36;21.00;61.60
65462;DHT22;53236;43.666;18.444;2023-05-10T07:00:03;21.40;58.80
65462;DHT22;53236;43.666;18.444;2023-05-10T07:02:32;21.50;59.90
65462;DHT22;53236;43.666;18.444;2023-05-10T07:04:58;20.90;59.70
65462;DHT22;53236;43.666;18.444;2023-05-10T07:07:23;20.00;61.20
65462;DHT22;53236;43.666;18.444;2023-05-10T07:09:49;19.40;62.00
65462;DHT22;53236;43.666;18.444;2023-05-10T07:12:16;19.30;63.90
65462;DHT22;53236;43.666;18.444;2023-05-10T07:14:42;19.10;64.00
65462;DHT22;53236;43.666;18.444;2023-05-10T07:17:08;19.70;62.70
65462;DHT22;53236;43.666;18.444;2023-05-10T07:19:34;20.10;63.00
65462;DHT22;53236;43.666;18.444;2023-05-10T07:21:59;20.30;62.40
65462;DHT22;53236;43.666;18.444;2023-05-10T07:24:25;20.90;61.00
65462;DHT22;53236;43.666;18.444;2023-05-10T07:26:51;21.90;61.20
65462;DHT22;53236;43.666;18.444;2023-05-10T07:29:17;22.90;57.70
65462;DHT22;53236;43.666;18.444;2023-05-10T07:31:42;24.00;56.00
65462;DHT22;53236;43.666;18.444;2023-05-10T07:34:08;25.50;52.90
65462;DHT22;53236;43.666;18.444;2023-05-10T07:36:35;26.70;50.60
65462;DHT22;53236;43.666;18.444;2023-05-10T07:39:01;26.90;49.50
65462;DHT22;53236;43.666;18.444;2023-05-10T07:41:27;27.30;49.80
65462;DHT22;53236;43.666;18.444;2023-05-10T07:43:53;26.50;49.00
65462;DHT22;53236;43.666;18.444;2023-05-10T07:46:19;25.10;49.60
65462;DHT22;53236;43.666;18.444;2023-05-10T07:48:45;23.60;51.70
65462;DHT22;53236;43.666;18.444;2023-05-10T07:51:11;22.90;52.70
65462;DHT22;53236;43.666;18.444;2023-05-10T07:53:37;21.80;55.50
65462;DHT22;53236;43.666;18.444;2023-05-10T07:56:25;21.30;57.40
65462;DHT22;53236;43.666;18.444;2023-05-10T07:58:53;20.80;59.30
65462;DHT22;53236;43.666;18.444;2023-05-10T08:01:19;20.30;58.40
65462;DHT22;53236;43.666;18.444;2023-05-10T08:03:45;20.00;60.40
65462;DHT22;53236;43.666;18.444;2023-05-10T08:06:11;19.70;63.80
65462;DHT22;53236;43.666;18.444;2023-05-10T08:08:37;19.60;65.00
65462;DHT22;53236;43.666;18.444;2023-05-10T08:11:04;19.50;65.70
65462;DHT22;53236;43.666;18.444;2023-05-10T08:13:29;19.40;67.00
65462;DHT22;53236;43.666;18.444;2023-05-10T08:15:56;19.10;66.30
65462;DHT22;53236;43.666;18.444;2023-05-10T08:18:22;19.00;67.80
65462;DHT22;53236;43.666;18.444;2023-05-10T08:20:48;18.80;72.50
65462;DHT22;53236;43.666;18.444;2023-05-10T08:23:14;18.20;79.50
65462;DHT22;53236;43.666;18.444;2023-05-10T08:25:40;18.10;87.40
65462;DHT22;53236;43.666;18.444;2023-05-10T08:28:05;17.70;94.90
65462;DHT22;53236;43.666;18.444;2023-05-10T08:30:31;17.40;97.30
65462;DHT22;53236;43.666;18.444;2023-05-10T08:32:57;17.40;96.50
65462;DHT22;53236;43.666;18.444;2023-05-10T08:35:23;17.30;99.90
65462;DHT22;53236;43.666;18.444;2023-05-10T08:37:50;16.90;97.30
65462;DHT22;53236;43.666;18.444;2023-05-10T08:40:16;17.00;99.90
65462;DHT22;53236;43.666;18.444;2023-05-10T08:42:51;17.10;96.80
65462;DHT22;53236;43.666;18.444;2023-05-10T08:45:23;17.10;95.00
65462;DHT22;53236;43.666;18.444;2023-05-10T08:47:52;17.00;97.90
65462;DHT22;53236;43.666;18.444;2023-05-10T08:50:20;17.20;97.50
65462;DHT22;53236;43.666;18.444;2023-05-10T08:52:48;17.20;99.30
65462;DHT22;53236;43.666;18.444;2023-05-10T08:55:16;17.30;99.30
65462;DHT22;53236;43.666;18.444;2023-05-10T08:57:42;17.40;99.90
65462;DHT22;53236;43.666;18.444;2023-05-10T09:00:08;17.30;99.90
65462;DHT22;53236;43.666;18.444;2023-05-10T09:02:36;17.10;99.90
65462;DHT22;53236;43.666;18.444;2023-05-10T09:05:03;17.00;99.90
65462;DHT22;53236;43.666;18.444;2023-05-10T09:07:30;16.90;99.90
65462;DHT22;53236;43.666;18.444;2023-05-10T09:09:57;16.60;99.90
65462;DHT22;53236;43.666;18.444;2023-05-10T09:12:23;16.40;99.90
65462;DHT22;53236;43.666;18.444;2023-05-10T09:14:50;16.30;99.90
65462;DHT22;53236;43.666;18.444;2023-05-10T09:17:18;16.40;99.90
65462;DHT22;53236;43.666;18.444;2023-05-10T09:19:45;16.60;99.90
65462;DHT22;53236;43.666;18.444;2023-05-10T09:22:10;16.70;99.90
65462;DHT22;53236;43.666;18.444;2023-05-10T09:24:36;16.70;99.90
65462;DHT22;53236;43.666;18.444;2023-05-10T09:27:07;16.60;99.90
65462;DHT22;53236;43.666;18.444;2023-05-10T09:29:41;16.50;99.90
65462;DHT22;53236;43.666;18.444;2023-05-10T09:32:07;16.00;99.90
65462;DHT22;53236;43.666;18.444;2023-05-10T09:34:33;15.80;99.90
65462;DHT22;53236;43.666;18.444;2023-05-10T09:37:02;15.80;99.90
65462;DHT22;53236;43.666;18.444;2023-05-10T09:39:33;16.00;99.90
65462;DHT22;53236;43.666;18.444;2023-05-10T09:42:07;16.10;99.90
65462;DHT22;53236;43.666;18.444;2023-05-10T09:44:33;16.20;99.90
65462;DHT22;53236;43.666;18.444;2023-05-10T09:47:01;16.30;99.90
65462;DHT22;53236;43.666;18.444;2023-05-10T09:49:27;16.40;99.90
65462;DHT22;53236;43.666;18.444;2023-05-10T09:52:19;16.20;99.90
65462;DHT22;53236;43.666;18.444;2023-05-10T09:54:52;16.10;99.90
65462;DHT22;53236;43.666;18.444;2023-05-10T09:57:20;16.10;99.90
65462;DHT22;53236;43.666;18.444;2023-05-10T09:59:47;16.00;99.90
65462;DHT22;53236;43.666;18.444;2023-05-10T10:02:13;15.70;99.90
65462;DHT22;53236;43.666;18.444;2023-05-10T10:04:40;15.70;99.90
65462;DHT22;53236;43.666;18.444;2023-05-10T10:07:06;16.00;99.90
65462;DHT22;53236;43.666;18.444;2023-05-10T10:09:33;16.20;99.90
65462;DHT22;53236;43.666;18.444;2023-05-10T10:12:03;16.20;99.90
65462;DHT22;53236;43.666;18.444;2023-05-10T10:14:30;16.30;99.90
65462;DHT22;53236;43.666;18.444;2023-05-10T10:16:56;16.20;99.90
65462;DHT22;53236;43.666;18.444;2023-05-10T10:19:22;16.20;99.90
65462;DHT22;53236;43.666;18.444;2023-05-10T10:21:49;16.10;99.90
65462;DHT22;53236;43.666;18.444;2023-05-10T10:24:15;16.00;99.90
65462;DHT22;53236;43.666;18.444;2023-05-10T10:26:42;15.90;99.90
65462;DHT22;53236;43.666;18.444;2023-05-10T10:29:25;15.70;99.90
65462;DHT22;53236;43.666;18.444;2023-05-10T10:32:10;15.60;99.90
65462;DHT22;53236;43.666;18.444;2023-05-10T10:34:42;15.60;99.90
65462;DHT22;53236;43.666;18.444;2023-05-10T10:37:08;15.50;99.90
65462;DHT22;53236;43.666;18.444;2023-05-10T10:39:33;15.50;99.90
65462;DHT22;53236;43.666;18.444;2023-05-10T10:42:02;15.70;99.90
65462;DHT22;53236;43.666;18.444;2023-05-10T10:52:15;16.70;99.90
65462;DHT22;53236;43.666;18.444;2023-05-10T10:55:17;17.40;98.80
65462;DHT22;53236;43.666;18.444;2023-05-10T10:57:53;17.80;99.90
65462;DHT22;53236;43.666;18.444;2023-05-10T11:00:36;18.40;99.90
65462;DHT22;53236;43.666;18.444;2023-05-10T11:03:03;18.90;99.90
65462;DHT22;53236;43.666;18.444;2023-05-10T11:08:00;19.20;88.40
65462;DHT22;53236;43.666;18.444;2023-05-10T11:10:26;19.60;80.70
65462;DHT22;53236;43.666;18.444;2023-05-10T11:13:02;19.60;72.10
65462;DHT22;53236;43.666;18.444;2023-05-10T11:15:34;19.70;68.50
65462;DHT22;53236;43.666;18.444;2023-05-10T11:18:23;19.90;71.70
65462;DHT22;53236;43.666;18.444;2023-05-10T11:20:57;20.10;64.50
65462;DHT22;53236;43.666;18.444;2023-05-10T11:23:28;20.00;65.70
65462;DHT22;53236;43.666;18.444;2023-05-10T11:25:55;20.10;66.30
65462;DHT22;53236;43.666;18.444;2023-05-10T11:28:21;20.10;63.20
65462;DHT22;53236;43.666;18.444;2023-05-10T11:30:47;20.30;65.50
65462;DHT22;53236;43.666;18.444;2023-05-10T11:33:19;20.00;66.60
65462;DHT22;53236;43.666;18.444;2023-05-10T11:35:46;19.90;69.10
65462;DHT22;53236;43.666;18.444;2023-05-10T11:38:13;19.60;70.90
65462;DHT22;53236;43.666;18.444;2023-05-10T11:40:40;19.20;69.30
65462;DHT22;53236;43.666;18.444;2023-05-10T11:43:06;19.10;76.20
65462;DHT22;53236;43.666;18.444;2023-05-10T11:45:34;19.00;86.30
65462;DHT22;53236;43.666;18.444;2023-05-10T11:48:01;19.30;80.20
65462;DHT22;53236;43.666;18.444;2023-05-10T11:50:27;19.10;79.10
65462;DHT22;53236;43.666;18.444;2023-05-10T11:52:54;18.90;73.00
65462;DHT22;53236;43.666;18.444;2023-05-10T11:55:20;18.80;85.40
65462;DHT22;53236;43.666;18.444;2023-05-10T11:57:46;18.70;83.60
65462;DHT22;53236;43.666;18.444;2023-05-10T12:00:13;18.80;88.90
65462;DHT22;53236;43.666;18.444;2023-05-10T12:02:39;18.70;86.60
65462;DHT22;53236;43.666;18.444;2023-05-10T12:05:06;18.90;80.20
65462;DHT22;53236;43.666;18.444;2023-05-10T12:07:33;18.80;76.00
65462;DHT22;53236;43.666;18.444;2023-05-10T12:10:12;18.60;80.70
65462;DHT22;53236;43.666;18.444;2023-05-10T12:12:44;18.20;80.70
65462;DHT22;53236;43.666;18.444;2023-05-10T12:17:41;17.90;82.20
65462;DHT22;53236;43.666;18.444;2023-05-10T12:20:35;17.80;79.80
65462;DHT22;53236;43.666;18.444;2023-05-10T12:23:02;17.70;79.30
65462;DHT22;53236;43.666;18.444;2023-05-10T12:25:33;17.70;83.30
65462;DHT22;53236;43.666;18.444;2023-05-10T12:28:00;17.80;89.40
65462;DHT22;53236;43.666;18.444;2023-05-10T12:30:30;18.10;82.70
65462;DHT22;53236;43.666;18.444;2023-05-10T12:33:18;18.40;82.50
65462;DHT22;53236;43.666;18.444;2023-05-10T12:35:49;18.40;77.50
65462;DHT22;53236;43.666;18.444;2023-05-10T12:38:34;18.40;77.10
65462;DHT22;53236;43.666;18.444;2023-05-10T12:41:05;18.60;79.10
65462;DHT22;53236;43.666;18.444;2023-05-10T12:43:31;18.80;79.50
65462;DHT22;53236;43.666;18.444;2023-05-10T12:45:58;19.20;78.30
65462;DHT22;53236;43.666;18.444;2023-05-10T12:48:24;19.20;79.70
65462;DHT22;53236;43.666;18.444;2023-05-10T12:50:50;19.40;75.50
65462;DHT22;53236;43.666;18.444;2023-05-10T12:53:16;19.40;75.90
65462;DHT22;53236;43.666;18.444;2023-05-10T12:55:43;19.30;76.20
65462;DHT22;53236;43.666;18.444;2023-05-10T12:58:09;19.00;75.00
65462;DHT22;53236;43.666;18.444;2023-05-10T13:00:35;19.00;91.00
65462;DHT22;53236;43.666;18.444;2023-05-10T13:03:00;19.10;77.30
65462;DHT22;53236;43.666;18.444;2023-05-10T13:05:26;19.30;75.90
65462;DHT22;53236;43.666;18.444;2023-05-10T13:07:52;19.40;70.30
65462;DHT22;53236;43.666;18.444;2023-05-10T13:10:17;19.30;68.20
65462;DHT22;53236;43.666;18.444;2023-05-10T13:12:43;19.20;65.80
65462;DHT22;53236;43.666;18.444;2023-05-10T13:15:09;19.30;66.20
65462;DHT22;53236;43.666;18.444;2023-05-10T13:17:35;19.40;62.60
65462;DHT22;53236;43.666;18.444;2023-05-10T13:20:01;19.50;61.40
65462;DHT22;53236;43.666;18.444;2023-05-10T13:22:26;19.60;62.30
65462;DHT22;53236;43.666;18.444;2023-05-10T13:24:53;19.80;60.40
65462;DHT22;53236;43.666;18.444;2023-05-10T13:27:18;20.00;60.90
65462;DHT22;53236;43.666;18.444;2023-05-10T13:29:44;20.10;61.00
65462;DHT22;53236;43.666;18.444;2023-05-10T13:32:10;20.00;61.80
65462;DHT22;53236;43.666;18.444;2023-05-10T13:34:35;20.30;59.00
65462;DHT22;53236;43.666;18.444;2023-05-10T13:37:02;20.50;61.30
65462;DHT22;53236;43.666;18.444;2023-05-10T13:39:27;20.60;60.30
65462;DHT22;53236;43.666;18.444;2023-05-10T13:41:56;20.60;60.20
65462;DHT22;53236;43.666;18.444;2023-05-10T13:44:21;20.50;58.00
65462;DHT22;53236;43.666;18.444;2023-05-10T13:46:47;20.70;58.30
65462;DHT22;53236;43.666;18.444;2023-05-10T13:49:13;21.00;60.20
65462;DHT22;53236;43.666;18.444;2023-05-10T13:51:39;20.80;62.50
65462;DHT22;53236;43.666;18.444;2023-05-10T13:54:04;20.70;65.50
65462;DHT22;53236;43.666;18.444;2023-05-10T13:56:30;20.60;66.10
65462;DHT22;53236;43.666;18.444;2023-05-10T13:58:57;20.50;65.40
65462;DHT22;53236;43.666;18.444;2023-05-10T14:01:23;20.40;68.60
65462;DHT22;53236;43.666;18.444;2023-05-10T14:03:49;20.20;68.40
65462;DHT22;53236;43.666;18.444;2023-05-10T14:06:15;20.30;69.10
65462;DHT22;53236;43.666;18.444;2023-05-10T14:08:41;19.70;67.70
65462;DHT22;53236;43.666;18.444;2023-05-10T14:11:07;19.40;69.80
65462;DHT22;53236;43.666;18.444;2023-05-10T14:13:33;19.50;71.90
65462;DHT22;53236;43.666;18.444;2023-05-10T14:15:58;19.50;71.10
65462;DHT22;53236;43.666;18.444;2023-05-10T14:18:26;19.50;70.30
65462;DHT22;53236;43.666;18.444;2023-05-10T14:20:52;19.30;73.90
65462;DHT22;53236;43.666;18.444;2023-05-10T14:23:18;19.20;77.60
65462;DHT22;53236;43.666;18.444;2023-05-10T14:25:50;18.90;81.30
65462;DHT22;53236;43.666;18.444;2023-05-10T14:28:16;18.70;91.10
65462;DHT22;53236;43.666;18.444;2023-05-10T14:30:43;18.40;94.30
65462;DHT22;53236;43.666;18.444;2023-05-10T14:33:10;18.20;96.00
65462;DHT22;53236;43.666;18.444;2023-05-10T14:35:36;18.10;94.10
65462;DHT22;53236;43.666;18.444;2023-05-10T14:38:03;18.20;97.10
65462;DHT22;53236;43.666;18.444;2023-05-10T14:40:29;17.90;97.70
65462;DHT22;53236;43.666;18.444;2023-05-10T14:42:56;17.70;99.90
65462;DHT22;53236;43.666;18.444;2023-05-10T14:45:23;17.60;99.90
65462;DHT22;53236;43.666;18.444;2023-05-10T14:47:49;17.30;99.90
65462;DHT22;53236;43.666;18.444;2023-05-10T14:50:15;17.10;99.90
65462;DHT22;53236;43.666;18.444;2023-05-10T14:52:43;16.80;99.90
65462;DHT22;53236;43.666;18.444;2023-05-10T14:55:09;16.40;99.90
65462;DHT22;53236;43.666;18.444;2023-05-10T14:57:35;16.30;99.90
65462;DHT22;53236;43.666;18.444;2023-05-10T15:00:00;16.00;99.90
65462;DHT22;53236;43.666;18.444;2023-05-10T15:02:27;15.90;99.90
65462;DHT22;53236;43.666;18.444;2023-05-10T15:04:53;15.80;99.90
65462;DHT22;53236;43.666;18.444;2023-05-10T15:07:19;15.80;99.90
65462;DHT22;53236;43.666;18.444;2023-05-10T15:09:45;15.60;99.90
65462;DHT22;53236;43.666;18.444;2023-05-10T15:12:11;15.40;99.90
65462;DHT22;53236;43.666;18.444;2023-05-10T15:14:37;15.30;99.90
65462;DHT22;53236;43.666;18.444;2023-05-10T15:17:03;15.20;99.90
65462;DHT22;53236;43.666;18.444;2023-05-10T15:19:28;15.20;99.90
65462;DHT22;53236;43.666;18.444;2023-05-10T15:21:55;15.20;99.90
65462;DHT22;53236;43.666;18.444;2023-05-10T15:24:21;15.20;99.90
65462;DHT22;53236;43.666;18.444;2023-05-10T15:26:47;15.00;99.90
65462;DHT22;53236;43.666;18.444;2023-05-10T15:29:13;14.80;99.90
65462;DHT22;53236;43.666;18.444;2023-05-10T15:31:49;14.80;99.90
65462;DHT22;53236;43.666;18.444;2023-05-10T15:34:16;14.70;99.90
65462;DHT22;53236;43.666;18.444;2023-05-10T15:36:42;14.60;99.90
65462;DHT22;53236;43.666;18.444;2023-05-10T15:39:07;14.60;99.90
65462;DHT22;53236;43.666;18.444;2023-05-10T15:41:35;14.60;99.90
65462;DHT22;53236;43.666;18.444;2023-05-10T15:44:01;14.60;99.90
65462;DHT22;53236;43.666;18.444;2023-05-10T15:46:28;14.60;99.90